Montague, California
Current Conditions -  °F | °C
As of 12:53 AM on Saturday 20 Dec 2014 (Local Time) from KSIY Reporting Station
Overcast Overcast  
Wind Chill: 40°   Ceiling: 7000
Heat Index: 45°   Visibility: 10mi
Dew Point: 38°   Wind: 10mph
Humidity: 76%   Direction: 180°S
Pressure: 29.99"   Gusts: NA
Location:  41.73°N, 122.53°W
Report Text: KSIY 200853Z AUTO 18009KT 10SM OVC070 07/03 A2999 RMK AO2 SLP164 60000 T00720033 58012
Loading
Personal Weather Stations






























Interactive Weather Map New forecast layout! Learn more

10-Day Weather Forecast

Advertisements
Track Severe Weather on mobile